Time;durP1;ratioP1;P1;durP2;ratioP2;P2;SDS_P1;SDS_P2;PMS_P1;PMS_P2;Temp;Humidity;BMP_temperature;BMP_pressure;BME280_temperature;BME280_humidity;BME280_pressure;Samples;Min_cycle;Max_cycle;Signal;HPM_P1;HPM_P2
2023/09/24 00:02:11;;;;;;;8.90;6.43;;;14.00;99.90;;;;;;5034938;28;20218;-77
2023/09/24 00:04:39;;;;;;;8.95;6.60;;;14.00;99.90;;;;;;5034548;28;20577;-77
2023/09/24 00:07:07;;;;;;;10.38;7.65;;;14.10;99.90;;;;;;5035295;28;20202;-77
2023/09/24 00:09:36;;;;;;;8.60;6.30;;;14.00;99.90;;;;;;5033438;28;20687;-77
2023/09/24 00:12:05;;;;;;;11.30;7.30;;;13.90;99.90;;;;;;5025298;28;20600;-77
2023/09/24 00:14:32;;;;;;;9.75;6.70;;;13.90;99.90;;;;;;5032951;28;20205;-77
2023/09/24 00:17:06;;;;;;;10.43;6.45;;;13.80;99.90;;;;;;5034775;28;20234;-77
2023/09/24 00:19:35;;;;;;;8.70;6.93;;;13.80;99.90;;;;;;5034040;28;20206;-77
2023/09/24 00:22:04;;;;;;;10.43;6.75;;;13.80;99.90;;;;;;5034160;28;20234;-77
2023/09/24 00:24:31;;;;;;;8.63;6.63;;;13.70;99.90;;;;;;5034743;28;20210;-77
2023/09/24 00:26:59;;;;;;;8.85;6.53;;;13.70;99.90;;;;;;5035113;28;20201;-77
2023/09/24 00:29:26;;;;;;;8.30;6.50;;;13.70;99.90;;;;;;5033331;28;20202;-77
2023/09/24 00:31:54;;;;;;;9.55;6.10;;;13.80;99.90;;;;;;5030121;28;20194;-77
2023/09/24 00:34:21;;;;;;;11.43;6.43;;;13.80;99.90;;;;;;5028131;28;20190;-77
2023/09/24 00:36:50;;;;;;;8.52;6.50;;;13.60;99.90;;;;;;5034146;28;20210;-77
2023/09/24 00:39:18;;;;;;;7.35;6.05;;;13.60;99.90;;;;;;5033629;28;20202;-76
2023/09/24 00:41:46;;;;;;;6.38;5.72;;;13.70;99.90;;;;;;5034050;28;20199;-77
2023/09/24 00:44:14;;;;;;;7.70;5.55;;;13.70;99.90;;;;;;5033962;28;20202;-77
2023/09/24 00:46:44;;;;;;;11.45;5.70;;;13.70;99.90;;;;;;5031810;28;20194;-77
2023/09/24 00:49:13;;;;;;;8.48;6.30;;;13.70;99.90;;;;;;5034312;28;20199;-77
2023/09/24 00:51:42;;;;;;;6.05;5.45;;;13.60;99.90;;;;;;5033727;28;20195;-77
2023/09/24 00:54:12;;;;;;;8.38;6.05;;;13.70;99.90;;;;;;5033447;28;20202;-77
2023/09/24 00:56:41;;;;;;;6.68;5.50;;;13.70;99.90;;;;;;5033859;28;20574;-77
2023/09/24 00:59:09;;;;;;;7.45;6.20;;;13.80;99.90;;;;;;5033881;28;20528;-77
2023/09/24 01:01:38;;;;;;;7.20;5.10;;;13.70;99.90;;;;;;5032228;28;20206;-77
2023/09/24 01:04:07;;;;;;;7.03;5.30;;;13.70;99.90;;;;;;5033819;28;20233;-77
2023/09/24 01:06:35;;;;;;;7.40;5.43;;;13.70;99.90;;;;;;5033668;28;20206;-77
2023/09/24 01:09:08;;;;;;;7.22;5.30;;;13.70;99.90;;;;;;5033823;28;20202;-77
2023/09/24 01:11:38;;;;;;;7.43;5.05;;;13.70;99.90;;;;;;5031726;28;20195;-77
2023/09/24 01:14:06;;;;;;;8.07;5.30;;;13.70;99.90;;;;;;5034057;28;20186;-77
2023/09/24 01:16:33;;;;;;;6.20;4.80;;;13.50;99.90;;;;;;5037285;28;20198;-77
2023/09/24 01:19:02;;;;;;;6.68;5.40;;;13.50;99.90;;;;;;5032718;28;20219;-76
2023/09/24 01:21:51;;;;;;;7.32;5.20;;;13.40;99.90;;;;;;5030483;28;20555;-77
2023/09/24 01:24:21;;;;;;;7.22;5.28;;;13.40;99.90;;;;;;5032990;28;20229;-77
2023/09/24 01:26:49;;;;;;;9.13;5.72;;;13.40;99.90;;;;;;5026942;28;20199;-77
2023/09/24 01:29:17;;;;;;;9.23;4.78;;;13.30;99.90;;;;;;5020895;28;20198;-78
2023/09/24 01:31:44;;;;;;;5.63;5.00;;;13.40;99.90;;;;;;5031929;28;20664;-77
2023/09/24 01:34:12;;;;;;;6.82;4.70;;;13.50;99.90;;;;;;5037351;28;20197;-77
2023/09/24 01:36:39;;;;;;;9.85;4.93;;;13.50;99.90;;;;;;5035155;28;20210;-77
2023/09/24 01:39:07;;;;;;;9.45;5.47;;;13.30;99.90;;;;;;5030970;28;20205;-77
2023/09/24 01:41:36;;;;;;;7.28;5.25;;;13.30;99.90;;;;;;5028740;28;20202;-77
2023/09/24 01:44:04;;;;;;;6.97;5.22;;;13.30;99.90;;;;;;5032879;28;20218;-77
2023/09/24 01:46:32;;;;;;;8.82;4.82;;;13.30;99.90;;;;;;5032609;28;20198;-77
2023/09/24 01:49:01;;;;;;;7.05;5.40;;;13.40;99.90;;;;;;5033397;28;20213;-76
2023/09/24 01:51:28;;;;;;;7.75;5.43;;;13.20;99.90;;;;;;5032427;28;20202;-77
2023/09/24 01:53:56;;;;;;;6.50;5.05;;;13.30;99.90;;;;;;5029364;28;20689;-77
2023/09/24 01:56:23;;;;;;;5.95;4.93;;;13.40;99.90;;;;;;5029591;28;20205;-77
2023/09/24 01:58:52;;;;;;;5.47;4.32;;;13.50;99.90;;;;;;5030358;28;20198;-77
2023/09/24 02:01:20;;;;;;;5.80;5.10;;;13.60;99.90;;;;;;5033161;28;20194;-77
2023/09/24 02:03:49;;;;;;;7.80;5.03;;;13.50;99.90;;;;;;5033832;28;20703;-77
2023/09/24 02:06:16;;;;;;;5.95;4.32;;;13.50;99.90;;;;;;5027461;28;20201;-77
2023/09/24 02:08:44;;;;;;;6.93;4.10;;;13.60;99.90;;;;;;5037260;28;20206;-76
2023/09/24 02:11:14;;;;;;;5.90;4.57;;;13.40;99.90;;;;;;5036645;28;20190;-76
2023/09/24 02:13:42;;;;;;;6.47;4.18;;;13.20;99.90;;;;;;5037736;28;20229;-77
2023/09/24 02:16:12;;;;;;;5.75;4.53;;;13.30;99.90;;;;;;5037138;28;20209;-77
2023/09/24 02:18:40;;;;;;;6.78;4.70;;;13.40;99.90;;;;;;5036195;28;20203;-77
2023/09/24 02:21:14;;;;;;;5.30;4.80;;;13.50;99.90;;;;;;5035854;28;20198;-77
2023/09/24 02:23:41;;;;;;;6.85;4.90;;;13.50;99.90;;;;;;5035063;28;20233;-77
2023/09/24 02:26:09;;;;;;;6.57;4.60;;;13.50;99.90;;;;;;5037041;28;20221;-77
2023/09/24 02:28:38;;;;;;;8.80;4.82;;;13.40;99.90;;;;;;5042673;28;20202;-77
2023/09/24 02:31:06;;;;;;;6.28;4.10;;;13.30;99.90;;;;;;5036319;28;20205;-76
2023/09/24 02:33:37;;;;;;;7.25;4.57;;;13.20;99.90;;;;;;5036453;28;20222;-77
2023/09/24 02:36:08;;;;;;;5.93;4.13;;;13.10;99.90;;;;;;5037502;28;20194;-77
2023/09/24 02:38:36;;;;;;;7.68;4.38;;;13.20;99.90;;;;;;5031248;28;20202;-77
2023/09/24 02:41:04;;;;;;;9.27;4.70;;;13.20;99.90;;;;;;5036414;28;20190;-77
2023/09/24 02:43:32;;;;;;;7.88;4.47;;;13.20;99.90;;;;;;5036700;28;20238;-77
2023/09/24 02:46:00;;;;;;;7.93;4.05;;;13.00;99.90;;;;;;5036397;28;20219;-77
2023/09/24 02:48:27;;;;;;;6.93;4.10;;;13.00;99.90;;;;;;5035701;28;20221;-77
2023/09/24 02:50:58;;;;;;;7.13;4.65;;;12.90;99.90;;;;;;5032468;28;20194;-77
2023/09/24 02:53:25;;;;;;;8.50;4.95;;;12.80;99.90;;;;;;5036568;28;20229;-77
2023/09/24 02:55:54;;;;;;;6.90;4.20;;;12.80;99.90;;;;;;5036495;28;20207;-77
2023/09/24 02:58:22;;;;;;;7.22;4.57;;;13.00;99.90;;;;;;5036758;28;20198;-76
2023/09/24 03:00:50;;;;;;;6.00;4.43;;;12.90;99.90;;;;;;5035466;28;20206;-77
2023/09/24 03:03:18;;;;;;;6.97;4.45;;;13.00;99.90;;;;;;5036211;28;20221;-76
2023/09/24 03:05:45;;;;;;;6.45;4.40;;;13.00;99.90;;;;;;5034229;28;20218;-77
2023/09/24 03:08:16;;;;;;;6.72;4.35;;;13.10;99.90;;;;;;5036306;28;20205;-77
2023/09/24 03:10:44;;;;;;;6.00;4.43;;;13.10;99.90;;;;;;5030547;28;20210;-77
2023/09/24 03:13:11;;;;;;;7.72;4.60;;;12.90;99.90;;;;;;5031009;28;20298;-77
2023/09/24 03:15:39;;;;;;;7.30;4.70;;;12.90;99.90;;;;;;5035054;28;20195;-77
2023/09/24 03:18:06;;;;;;;6.75;4.63;;;13.00;99.90;;;;;;5035427;28;20198;-77
2023/09/24 03:20:34;;;;;;;6.60;4.28;;;12.90;99.90;;;;;;5040067;28;20201;-77
2023/09/24 03:23:03;;;;;;;4.78;4.00;;;13.00;99.90;;;;;;5035281;28;20222;-76
2023/09/24 03:25:32;;;;;;;5.90;4.65;;;12.90;99.90;;;;;;5033756;28;20572;-77
2023/09/24 03:28:00;;;;;;;6.95;4.38;;;13.10;99.90;;;;;;5045225;28;20199;-77
2023/09/24 03:30:28;;;;;;;4.75;4.10;;;13.00;99.90;;;;;;5035565;28;20680;-77
2023/09/24 03:32:57;;;;;;;6.38;4.38;;;12.90;99.90;;;;;;5026432;28;20218;-77
2023/09/24 03:35:26;;;;;;;6.05;4.57;;;12.80;99.90;;;;;;5036169;28;20217;-76
2023/09/24 03:37:54;;;;;;;8.38;4.72;;;12.80;99.90;;;;;;5035413;28;20202;-76
2023/09/24 03:40:24;;;;;;;4.82;4.32;;;12.70;99.90;;;;;;5035527;28;20201;-77
2023/09/24 03:42:53;;;;;;;7.03;4.70;;;12.60;99.90;;;;;;5034738;28;20222;-77
2023/09/24 03:45:22;;;;;;;7.45;4.07;;;12.60;99.90;;;;;;5035387;28;20221;-77
2023/09/24 03:47:50;;;;;;;6.72;4.50;;;12.70;99.90;;;;;;5034510;28;20198;-77
2023/09/24 03:50:19;;;;;;;8.48;4.90;;;12.80;99.90;;;;;;5034972;28;20536;-77
2023/09/24 03:52:48;;;;;;;6.35;4.50;;;12.90;99.90;;;;;;5035193;28;20241;-77
2023/09/24 03:55:16;;;;;;;5.95;4.85;;;12.90;99.90;;;;;;5035361;28;20195;-77
2023/09/24 03:57:44;;;;;;;8.50;4.90;;;12.90;99.90;;;;;;5033167;28;20535;-77
2023/09/24 04:00:15;;;;;;;7.45;4.70;;;12.80;99.90;;;;;;5035534;28;20201;-77
2023/09/24 04:02:47;;;;;;;5.68;4.70;;;12.90;99.90;;;;;;5035179;28;20218;-77
2023/09/24 04:05:17;;;;;;;7.60;4.85;;;13.00;99.90;;;;;;5045613;28;20218;-77
2023/09/24 04:07:46;;;;;;;7.60;4.70;;;12.90;99.90;;;;;;5034067;28;20198;-76
2023/09/24 04:10:14;;;;;;;6.47;4.35;;;12.80;99.90;;;;;;5033399;28;20198;-77
2023/09/24 04:12:43;;;;;;;7.15;5.03;;;12.80;99.90;;;;;;5034957;28;20221;-76
2023/09/24 04:15:11;;;;;;;6.18;4.88;;;12.70;99.90;;;;;;5034972;28;20190;-77
2023/09/24 04:17:40;;;;;;;7.05;5.10;;;12.50;99.90;;;;;;5034762;28;20206;-77
2023/09/24 04:20:14;;;;;;;7.88;5.00;;;12.50;99.90;;;;;;5034305;28;20674;-76
2023/09/24 04:22:42;;;;;;;7.03;5.18;;;12.60;99.90;;;;;;5033900;28;20230;-76
2023/09/24 04:25:10;;;;;;;8.00;5.28;;;12.60;99.90;;;;;;5026783;28;20221;-76
2023/09/24 04:27:38;;;;;;;7.32;5.38;;;12.50;99.90;;;;;;5033805;28;20553;-77
2023/09/24 04:30:10;;;;;;;8.63;5.68;;;12.60;99.90;;;;;;5033727;28;20640;-77
2023/09/24 04:32:37;;;;;;;8.43;5.65;;;12.60;99.90;;;;;;5034663;28;20708;-77
2023/09/24 04:35:09;;;;;;;9.77;5.80;;;12.60;99.90;;;;;;5030754;28;20202;-77
2023/09/24 04:37:38;;;;;;;7.60;5.70;;;12.70;99.90;;;;;;5028782;28;20563;-77
2023/09/24 04:40:10;;;;;;;11.32;6.00;;;12.60;99.90;;;;;;5034347;28;20202;-77
2023/09/24 04:42:38;;;;;;;9.93;5.50;;;12.60;99.90;;;;;;5034768;28;20583;-77
2023/09/24 04:45:06;;;;;;;10.20;5.90;;;12.50;99.90;;;;;;5032633;28;20205;-77
2023/09/24 04:47:35;;;;;;;10.43;6.05;;;12.50;99.90;;;;;;5034253;28;20195;-76
2023/09/24 04:50:03;;;;;;;6.25;5.60;;;12.70;99.90;;;;;;5029625;28;20203;-77
2023/09/24 04:52:31;;;;;;;8.85;6.00;;;12.80;99.90;;;;;;5030753;28;20218;-76
2023/09/24 04:54:59;;;;;;;6.82;5.78;;;12.80;99.90;;;;;;5032802;28;20202;-75
2023/09/24 04:57:26;;;;;;;8.90;5.40;;;12.80;99.90;;;;;;5027791;28;20195;-75
2023/09/24 04:59:54;;;;;;;7.18;5.38;;;12.70;99.90;;;;;;5032689;28;20198;-75
2023/09/24 05:02:23;;;;;;;6.88;6.03;;;12.80;99.90;;;;;;5033082;28;20230;-75
2023/09/24 05:04:52;;;;;;;7.60;6.00;;;12.90;99.90;;;;;;5030831;28;20672;-75
2023/09/24 05:07:20;;;;;;;6.60;5.63;;;12.90;99.90;;;;;;5034213;28;20219;-75
2023/09/24 05:09:48;;;;;;;7.32;5.57;;;12.90;99.90;;;;;;5033775;28;20202;-75
2023/09/24 05:12:16;;;;;;;6.72;5.32;;;12.80;99.90;;;;;;5034060;28;20222;-75
2023/09/24 05:14:43;;;;;;;6.25;5.65;;;12.80;99.90;;;;;;5033901;28;20210;-75
2023/09/24 05:17:14;;;;;;;11.00;5.70;;;12.90;99.90;;;;;;5033031;28;20190;-75
2023/09/24 05:19:42;;;;;;;7.70;5.25;;;12.90;99.90;;;;;;5029963;28;20194;-77
2023/09/24 05:22:09;;;;;;;8.93;5.45;;;12.80;99.90;;;;;;5029567;28;20241;-77
2023/09/24 05:24:37;;;;;;;7.85;5.35;;;12.70;99.90;;;;;;5032676;28;20229;-77
2023/09/24 05:27:06;;;;;;;6.28;4.93;;;12.70;99.90;;;;;;5026002;28;20221;-77
2023/09/24 05:29:33;;;;;;;6.70;5.30;;;12.70;99.90;;;;;;5025453;28;20198;-77
2023/09/24 05:32:02;;;;;;;6.55;5.80;;;12.70;99.90;;;;;;5023999;28;20229;-77
2023/09/24 05:34:29;;;;;;;8.90;5.85;;;12.70;99.90;;;;;;5033188;28;20202;-77
2023/09/24 05:36:57;;;;;;;7.10;6.32;;;12.60;99.90;;;;;;5030972;28;20190;-77
2023/09/24 05:39:24;;;;;;;7.78;6.60;;;12.50;99.90;;;;;;5027538;28;20202;-77
2023/09/24 05:41:52;;;;;;;8.82;6.35;;;12.50;99.90;;;;;;5032648;28;20209;-74
2023/09/24 05:44:21;;;;;;;9.00;6.20;;;12.50;99.90;;;;;;5054766;23;20225;-78
2023/09/24 05:46:48;;;;;;;9.77;6.15;;;12.50;99.90;;;;;;5036932;28;20210;-78
2023/09/24 05:49:16;;;;;;;9.48;5.85;;;12.60;99.90;;;;;;5048366;28;20212;-78
2023/09/24 05:51:55;;;;;;;7.95;6.70;;;12.70;99.90;;;;;;5042803;28;20202;-78
2023/09/24 05:54:22;;;;;;;10.40;6.65;;;12.50;99.90;;;;;;5056511;28;20217;-78
2023/09/24 05:56:50;;;;;;;9.27;6.55;;;12.60;99.90;;;;;;5064978;28;20196;-78
2023/09/24 05:59:19;;;;;;;8.48;6.43;;;12.60;99.90;;;;;;5060897;28;20197;-78
2023/09/24 06:01:47;;;;;;;10.00;6.65;;;12.70;99.90;;;;;;5062512;28;20200;-78
2023/09/24 06:04:24;;;;;;;8.88;6.13;;;12.60;99.90;;;;;;5068878;28;20240;-78
2023/09/24 06:06:56;;;;;;;8.40;6.05;;;12.70;99.90;;;;;;5070077;28;20217;-78
2023/09/24 06:09:24;;;;;;;11.13;6.30;;;12.90;99.90;;;;;;5072914;28;20208;-78
2023/09/24 06:11:55;;;;;;;10.15;6.25;;;12.90;99.90;;;;;;5070334;28;20220;-78
2023/09/24 06:14:22;;;;;;;7.97;5.93;;;13.00;99.90;;;;;;5069097;28;20222;-78
2023/09/24 06:16:51;;;;;;;6.63;5.43;;;13.10;99.90;;;;;;5067430;28;20224;-78
2023/09/24 06:19:19;;;;;;;7.90;5.90;;;13.20;99.90;;;;;;5074141;28;20212;-78
2023/09/24 06:21:50;;;;;;;8.32;5.82;;;13.20;99.90;;;;;;5065262;28;20205;-78
2023/09/24 06:24:17;;;;;;;7.10;5.70;;;13.20;99.90;;;;;;5064849;28;20221;-78
2023/09/24 06:26:45;;;;;;;8.80;5.97;;;13.30;99.90;;;;;;5059769;28;20247;-78
2023/09/24 06:29:20;;;;;;;7.03;5.57;;;13.40;99.90;;;;;;5077471;28;20651;-78
2023/09/24 06:31:50;;;;;;;6.43;5.50;;;13.40;99.90;;;;;;5063381;28;20220;-78
2023/09/24 06:34:24;;;;;;;11.88;6.07;;;13.20;99.90;;;;;;5064594;28;20227;-78
2023/09/24 06:36:51;;;;;;;7.70;6.07;;;13.10;99.90;;;;;;5055329;28;20209;-78
2023/09/24 06:39:18;;;;;;;7.07;5.45;;;13.20;99.90;;;;;;5064188;28;20228;-78
2023/09/24 06:41:46;;;;;;;7.93;5.55;;;13.30;99.90;;;;;;5057015;28;20204;-78
2023/09/24 06:44:20;;;;;;;8.43;5.93;;;13.50;99.90;;;;;;5064353;28;20236;-78
2023/09/24 06:46:48;;;;;;;7.38;6.05;;;13.50;99.90;;;;;;5066801;28;20623;-78
2023/09/24 06:49:15;;;;;;;6.93;5.07;;;13.70;99.90;;;;;;5066149;28;20227;-78
2023/09/24 06:51:44;;;;;;;8.20;5.78;;;13.80;99.90;;;;;;5065025;28;20204;-78
2023/09/24 06:54:11;;;;;;;7.90;5.57;;;13.90;99.90;;;;;;5065193;28;20225;-79
2023/09/24 06:56:39;;;;;;;6.53;5.40;;;13.90;99.90;;;;;;5067648;28;20203;-78
2023/09/24 06:59:09;;;;;;;7.78;5.68;;;13.90;99.90;;;;;;5067801;28;20212;-78
2023/09/24 07:01:37;;;;;;;8.25;5.53;;;14.10;99.90;;;;;;5064909;28;20550;-78
2023/09/24 07:04:05;;;;;;;8.55;5.43;;;14.10;99.90;;;;;;5073190;28;20582;-78
2023/09/24 07:06:32;;;;;;;8.70;5.95;;;14.10;99.90;;;;;;5092641;28;20212;-78
2023/09/24 07:09:02;;;;;;;7.18;5.00;;;14.00;99.90;;;;;;5070328;28;20216;-78
2023/09/24 07:11:33;;;;;;;8.98;5.75;;;14.00;99.90;;;;;;5069925;28;20207;-77
2023/09/24 07:14:01;;;;;;;8.10;5.28;;;14.00;99.90;;;;;;5064678;28;20228;-77
2023/09/24 07:16:28;;;;;;;7.32;5.10;;;14.00;99.90;;;;;;5072566;28;20207;-77
2023/09/24 07:18:57;;;;;;;8.85;5.22;;;14.20;99.90;;;;;;5063058;28;20208;-77
2023/09/24 07:21:28;;;;;;;9.40;4.60;;;14.20;99.90;;;;;;5078608;28;20204;-77
2023/09/24 07:23:56;;;;;;;7.72;4.88;;;14.20;99.90;;;;;;5065414;28;20226;-77
2023/09/24 07:26:26;;;;;;;6.38;4.20;;;14.20;99.90;;;;;;5070595;28;20197;-77
2023/09/24 07:28:54;;;;;;;8.73;5.38;;;14.30;99.90;;;;;;5086478;28;20208;-77
2023/09/24 07:31:23;;;;;;;7.22;4.82;;;14.40;99.90;;;;;;5063533;28;20670;-77
2023/09/24 07:33:52;;;;;;;6.07;4.35;;;14.50;99.90;;;;;;5081126;28;20224;-77
2023/09/24 07:36:20;;;;;;;6.82;4.47;;;14.40;99.90;;;;;;5067006;28;20208;-77
2023/09/24 07:38:49;;;;;;;7.30;4.63;;;14.50;99.90;;;;;;5064186;28;20574;-77
2023/09/24 07:41:18;;;;;;;4.40;3.95;;;14.40;99.90;;;;;;5067292;28;20193;-78
2023/09/24 07:43:47;;;;;;;4.65;4.00;;;14.50;99.90;;;;;;5065033;28;20231;-78
2023/09/24 07:46:15;;;;;;;6.60;3.80;;;14.50;99.90;;;;;;5077115;28;20654;-78
2023/09/24 07:48:44;;;;;;;4.25;3.50;;;14.50;99.90;;;;;;5066977;28;20216;-78
2023/09/24 07:51:11;;;;;;;7.57;3.88;;;14.60;99.90;;;;;;5064508;28;20198;-78
2023/09/24 07:53:39;;;;;;;5.88;3.50;;;14.60;99.90;;;;;;5070388;28;20213;-78
2023/09/24 07:56:08;;;;;;;4.18;3.53;;;14.60;99.90;;;;;;5073698;28;20198;-78
2023/09/24 07:58:37;;;;;;;4.38;3.13;;;14.70;99.90;;;;;;5059241;28;20189;-77
2023/09/24 08:01:07;;;;;;;3.28;2.83;;;14.80;99.90;;;;;;5055789;28;20208;-77
2023/09/24 08:03:35;;;;;;;3.72;3.00;;;14.90;99.90;;;;;;5074417;28;20186;-78
2023/09/24 08:06:09;;;;;;;6.07;2.80;;;14.90;99.90;;;;;;5067511;28;20197;-77
2023/09/24 08:08:37;;;;;;;5.68;3.10;;;15.00;99.90;;;;;;5088370;28;20197;-78
2023/09/24 08:11:05;;;;;;;8.55;3.33;;;15.10;99.90;;;;;;5067854;28;20204;-78
2023/09/24 08:13:32;;;;;;;5.95;2.28;;;15.20;99.90;;;;;;5068419;28;20208;-78
2023/09/24 08:16:00;;;;;;;4.18;1.85;;;15.30;99.90;;;;;;5059649;28;20208;-78
2023/09/24 08:18:30;;;;;;;4.63;1.98;;;15.40;99.90;;;;;;5061911;28;20288;-78
2023/09/24 08:20:58;;;;;;;3.15;1.50;;;15.50;99.90;;;;;;5070977;28;20687;-78
2023/09/24 08:23:25;;;;;;;1.70;1.55;;;15.50;99.90;;;;;;5063041;28;20574;-78
2023/09/24 08:25:53;;;;;;;4.25;2.00;;;15.60;99.90;;;;;;5063528;28;20585;-77
2023/09/24 08:28:20;;;;;;;4.30;1.80;;;15.60;99.90;;;;;;5067095;28;20220;-82
2023/09/24 08:30:48;;;;;;;2.40;1.75;;;16.00;99.90;;;;;;5064682;28;20207;-82
2023/09/24 08:33:15;;;;;;;4.20;1.83;;;16.20;99.90;;;;;;5067519;28;20198;-77
2023/09/24 08:35:44;;;;;;;3.08;1.48;;;16.50;99.90;;;;;;5067148;28;20220;-76
2023/09/24 08:38:12;;;;;;;3.08;2.08;;;16.50;99.90;;;;;;5070271;28;20197;-78
2023/09/24 08:40:42;;;;;;;3.28;1.33;;;16.50;99.90;;;;;;5074166;28;20204;-78
2023/09/24 08:43:15;;;;;;;2.97;1.40;;;16.40;99.90;;;;;;5071490;28;20200;-80
2023/09/24 08:45:44;;;;;;;2.35;1.38;;;16.40;99.90;;;;;;5066355;28;20227;-77
2023/09/24 08:48:16;;;;;;;3.63;1.50;;;16.50;99.90;;;;;;5065688;28;20225;-78
2023/09/24 08:50:53;;;;;;;2.08;1.05;;;16.30;99.90;;;;;;5069883;28;20248;-78
2023/09/24 08:53:22;;;;;;;4.00;1.50;;;16.40;99.90;;;;;;5087413;28;20213;-79
2023/09/24 08:55:50;;;;;;;3.40;1.38;;;16.30;99.90;;;;;;5092533;28;20208;-79
2023/09/24 08:58:17;;;;;;;3.20;1.20;;;16.30;99.90;;;;;;5073278;28;20200;-78
2023/09/24 09:00:45;;;;;;;3.97;1.40;;;16.10;99.90;;;;;;5066339;28;20220;-78
2023/09/24 09:03:12;;;;;;;2.67;1.40;;;16.30;99.90;;;;;;5058291;28;20558;-78
2023/09/24 09:05:41;;;;;;;2.15;1.20;;;16.10;99.90;;;;;;5069205;28;20217;-80
2023/09/24 09:08:11;;;;;;;4.07;1.40;;;16.30;99.90;;;;;;5082679;28;20215;-78
2023/09/24 09:10:39;;;;;;;2.15;1.05;;;16.30;99.90;;;;;;5063848;28;20651;-78
2023/09/24 09:13:08;;;;;;;3.03;1.40;;;16.50;99.90;;;;;;5071324;28;20216;-77
2023/09/24 09:15:38;;;;;;;3.30;1.20;;;16.50;99.90;;;;;;5070455;28;20217;-77
2023/09/24 09:18:06;;;;;;;2.35;1.15;;;16.40;77.90;;;;;;5066519;28;20194;-78
2023/09/24 09:24:50;;;;;;;2.72;1.27;;;16.40;99.90;;;;;;5095228;28;20223;-78
2023/09/24 09:27:17;;;;;;;6.07;1.70;;;16.50;1.00;;;;;;5071679;28;20688;-77
2023/09/24 09:29:44;;;;;;;2.70;1.30;;;16.60;99.90;;;;;;5058027;28;20238;-77
2023/09/24 09:32:12;;;;;;;4.28;1.15;;;16.70;99.90;;;;;;5053381;28;20212;-77
2023/09/24 09:35:03;;;;;;;3.47;1.50;;;16.60;99.90;;;;;;5077319;28;20578;-77
2023/09/24 09:37:30;;;;;;;5.53;1.25;;;16.70;79.10;;;;;;5081620;28;20580;-81
2023/09/24 09:40:38;;;;;;;3.28;1.52;;;16.90;99.90;;;;;;5057055;28;20208;-78
2023/09/24 09:43:07;;;;;;;3.38;1.60;;;17.00;1.00;;;;;;5070484;28;20209;-78
2023/09/24 09:45:36;;;;;;;4.03;1.75;;;17.00;1.00;;;;;;5061678;28;20217;-78
2023/09/24 09:48:06;;;;;;;1.85;1.35;;;17.20;1.00;;;;;;5087077;28;20670;-78
2023/09/24 09:50:37;;;;;;;2.95;1.88;;;17.10;1.00;;;;;;5064240;28;20201;-78
2023/09/24 09:53:07;;;;;;;4.03;1.48;;;17.20;1.00;;;;;;5058089;28;20196;-78
2023/09/24 09:55:46;;;;;;;3.92;1.70;;;17.20;1.00;;;;;;5073061;28;20217;-78
2023/09/24 09:58:21;;;;;;;2.30;1.25;;;17.30;1.00;;;;;;5056776;28;20654;-78
2023/09/24 10:01:03;;;;;;;2.97;1.15;;;17.30;1.00;;;;;;5062240;28;20201;-78
2023/09/24 10:03:33;;;;;;;3.58;1.35;;;17.40;9.30;;;;;;5070117;28;20193;-77
2023/09/24 10:06:05;;;;;;;3.97;1.42;;;17.30;2.30;;;;;;5089842;28;20193;-77
2023/09/24 10:08:40;;;;;;;1.85;1.05;;;17.40;20.40;;;;;;5069690;28;20571;-77
2023/09/24 10:11:09;;;;;;;1.70;0.90;;;17.40;6.00;;;;;;5083612;28;20200;-78
2023/09/24 10:13:46;;;;;;;4.03;1.15;;;17.40;1.00;;;;;;5081543;28;20205;-78
2023/09/24 10:16:35;;;;;;;5.60;1.30;;;17.50;1.00;;;;;;5064906;28;20658;-77
2023/09/24 10:19:05;;;;;;;3.92;1.05;;;17.60;1.00;;;;;;5062449;28;20194;-78
2023/09/24 10:21:33;;;;;;;4.03;1.20;;;17.60;1.00;;;;;;5064232;28;20201;-78
2023/09/24 10:24:28;;;;;;;4.28;1.27;;;17.80;1.00;;;;;;5066434;28;20228;-78
2023/09/24 10:27:02;;;;;;;3.58;1.30;;;18.00;1.00;;;;;;5092863;28;20199;-78
2023/09/24 10:30:05;;;;;;;3.10;0.93;;;18.10;1.00;;;;;;5067125;28;20210;-79
2023/09/24 10:32:47;;;;;;;3.78;1.10;;;18.30;1.00;;;;;;5064324;28;20190;-78
2023/09/24 10:35:14;;;;;;;2.10;1.00;;;18.30;1.00;;;;;;5071575;28;20233;-79
2023/09/24 10:38:06;;;;;;;2.13;0.82;;;18.60;1.00;;;;;;5068766;28;20201;-78
2023/09/24 10:40:34;;;;;;;2.70;1.05;;;18.50;22.60;;;;;;5044762;28;20198;-78
2023/09/24 10:43:29;;;;;;;2.40;0.82;;;18.60;1.00;;;;;;5068352;28;20573;-79
2023/09/24 10:46:26;;;;;;;3.50;1.25;;;18.70;1.00;;;;;;5077876;28;20201;-78
2023/09/24 10:48:57;;;;;;;3.63;1.00;;;18.40;1.00;;;;;;5075824;28;20217;-79
2023/09/24 10:51:27;;;;;;;1.70;0.80;;;18.70;1.00;;;;;;5078934;28;20197;-78
2023/09/24 10:54:14;;;;;;;1.33;0.88;;;18.60;1.00;;;;;;5089368;28;20224;-79
2023/09/24 10:56:46;;;;;;;2.28;1.00;;;18.70;99.90;;;;;;5061206;28;20198;-78
2023/09/24 10:59:14;;;;;;;1.23;0.70;;;18.80;1.00;;;;;;5068726;28;20193;-79
2023/09/24 11:01:46;;;;;;;2.67;1.20;;;18.90;1.00;;;;;;5076624;28;20201;-78
2023/09/24 11:04:26;;;;;;;3.40;1.00;;;18.90;1.00;;;;;;5077807;28;20720;-78
2023/09/24 11:07:07;;;;;;;2.60;0.70;;;18.90;1.00;;;;;;5076262;28;20197;-79
2023/09/24 11:09:35;;;;;;;1.90;0.77;;;18.80;1.00;;;;;;5068690;28;20240;-78
2023/09/24 11:12:08;;;;;;;2.13;0.93;;;19.10;1.00;;;;;;5071393;28;20197;-78
2023/09/24 11:14:53;;;;;;;1.50;0.85;;;19.10;1.00;;;;;;5064369;28;20224;-78
2023/09/24 11:17:24;;;;;;;1.77;1.08;;;19.20;99.90;;;;;;5060622;28;20205;-78
2023/09/24 11:20:09;;;;;;;1.77;0.82;;;19.30;99.90;;;;;;5070992;28;20190;-78
2023/09/24 11:22:37;;;;;;;2.95;0.80;;;19.40;99.90;;;;;;5070707;28;20200;-78
2023/09/24 11:25:11;;;;;;;2.80;0.85;;;19.40;1.00;;;;;;5070842;28;20226;-78
2023/09/24 11:27:47;;;;;;;3.25;0.77;;;19.50;99.90;;;;;;5077040;28;20205;-78
2023/09/24 11:30:15;;;;;;;3.38;0.95;;;19.60;1.00;;;;;;5072547;28;20220;-78
2023/09/24 11:32:48;;;;;;;1.98;0.80;;;19.70;1.00;;;;;;5071131;28;20217;-78
2023/09/24 11:35:17;;;;;;;1.45;0.65;;;19.80;1.00;;;;;;5066337;28;20240;-78
2023/09/24 11:37:56;;;;;;;4.25;1.17;;;20.00;90.40;;;;;;5068463;28;20202;-78
2023/09/24 11:40:25;;;;;;;1.52;0.80;;;19.80;1.00;;;;;;5067781;28;20205;-78
2023/09/24 11:42:58;;;;;;;3.22;1.08;;;20.10;1.00;;;;;;5066762;28;20213;-78
2023/09/24 11:45:37;;;;;;;2.60;1.05;;;20.10;1.00;;;;;;5065023;28;20239;-78
2023/09/24 11:48:06;;;;;;;2.85;0.90;;;20.40;99.90;;;;;;5064245;28;20666;-78
2023/09/24 11:50:36;;;;;;;1.55;0.80;;;20.30;19.80;;;;;;5082653;28;20208;-78
2023/09/24 11:53:03;;;;;;;2.20;0.85;;;20.40;99.90;;;;;;5066677;28;20677;-78
2023/09/24 11:55:31;;;;;;;1.95;0.90;;;20.50;1.00;;;;;;5071399;28;20225;-79
2023/09/24 11:57:58;;;;;;;1.58;0.90;;;20.60;1.00;;;;;;5082439;28;20209;-78
2023/09/24 12:00:27;;;;;;;1.65;0.88;;;20.90;1.00;;;;;;5083713;28;20543;-79
2023/09/24 12:02:55;;;;;;;2.78;1.38;;;20.60;99.90;;;;;;5068510;28;20642;-78
2023/09/24 12:05:23;;;;;;;2.72;1.02;;;20.60;99.90;;;;;;5067529;28;20213;-76
2023/09/24 12:07:51;;;;;;;2.22;1.27;;;20.90;1.00;;;;;;5074680;28;20204;-76
2023/09/24 12:10:21;;;;;;;2.75;1.10;;;21.10;99.90;;;;;;5087888;28;20239;-76
2023/09/24 12:12:49;;;;;;;2.67;1.20;;;21.00;1.00;;;;;;5071725;28;20553;-77
2023/09/24 12:15:17;;;;;;;2.13;1.00;;;21.00;1.00;;;;;;5077402;28;20217;-78
2023/09/24 12:17:46;;;;;;;1.70;1.08;;;20.80;99.90;;;;;;5076655;28;20197;-77
2023/09/24 12:20:29;;;;;;;4.03;1.90;;;20.80;1.00;;;;;;5083400;28;20369;-78
2023/09/24 12:22:58;;;;;;;3.13;1.70;;;20.90;99.90;;;;;;5070318;28;20197;-78
2023/09/24 12:25:26;;;;;;;2.35;1.00;;;21.00;1.00;;;;;;5071548;28;20605;-78
2023/09/24 12:27:54;;;;;;;2.10;1.08;;;21.10;1.00;;;;;;5063759;28;20202;-78
2023/09/24 12:30:25;;;;;;;1.75;0.90;;;21.10;1.00;;;;;;5082790;28;20205;-78
2023/09/24 12:32:53;;;;;;;2.22;0.90;;;21.10;1.00;;;;;;5076908;28;20197;-78
2023/09/24 12:35:20;;;;;;;2.47;0.90;;;21.20;1.00;;;;;;5073584;28;20233;-78
2023/09/24 12:37:49;;;;;;;2.38;1.27;;;21.50;1.00;;;;;;5065181;28;20644;-78
2023/09/24 12:40:16;;;;;;;1.05;0.90;;;21.20;1.00;;;;;;5068063;28;20670;-78
2023/09/24 12:42:44;;;;;;;2.95;0.90;;;21.20;1.00;;;;;;5092546;28;20203;-78
2023/09/24 12:45:12;;;;;;;3.20;1.10;;;21.40;1.00;;;;;;5073429;28;20231;-78
2023/09/24 12:47:41;;;;;;;2.10;1.00;;;21.50;1.00;;;;;;5075088;28;20201;-78
2023/09/24 12:50:10;;;;;;;2.63;1.10;;;21.70;1.00;;;;;;5066521;28;20217;-78
2023/09/24 12:52:39;;;;;;;1.77;0.90;;;21.90;1.00;;;;;;5086214;28;20203;-77
2023/09/24 12:55:10;;;;;;;2.90;1.08;;;22.10;1.00;;;;;;5065596;28;20221;-77
2023/09/24 12:57:38;;;;;;;1.48;0.77;;;22.00;1.00;;;;;;5072692;28;20196;-77
2023/09/24 13:00:10;;;;;;;2.53;1.15;;;22.20;1.00;;;;;;5070332;28;20204;-77
2023/09/24 13:02:38;;;;;;;2.25;0.95;;;22.20;1.00;;;;;;5070114;28;20666;-76
2023/09/24 13:05:06;;;;;;;2.35;0.82;;;22.30;1.00;;;;;;5066921;28;20228;-77
2023/09/24 13:07:34;;;;;;;2.40;1.10;;;22.80;1.00;;;;;;5064521;28;20193;-77